Time;durP1;ratioP1;P1;durP2;ratioP2;P2;SDS_P1;SDS_P2;PMS_P1;PMS_P2;Temp;Humidity;BMP_temperature;BMP_pressure;BME280_temperature;BME280_humidity;BME280_pressure;Samples;Min_cycle;Max_cycle;Signal;HPM_P1;HPM_P2
2022/01/22 00:01:05;;;;;;;;;;;;;;;;;;5049545;28;19967;-76
2022/01/22 00:03:31;;;;;;;;;;;;;;;;;;5053382;28;19918;-75
2022/01/22 00:05:56;;;;;;;;;;;;;;;;;;5070469;28;20243;-76
2022/01/22 00:08:21;;;;;;;;;;;;;;;;;;5050007;28;19924;-75
2022/01/22 00:10:49;;;;;;;;;;;;;;;;;;5075336;28;19948;-75
2022/01/22 00:15:45;;;;;;;;;;;;;;;;;;5052049;28;19916;-76
2022/01/22 00:18:10;;;;;;;;;;;;;;;;;;5050840;28;19970;-76
2022/01/22 00:20:38;;;;;;;;;;;;;;;;;;5053419;28;19952;-76
2022/01/22 00:23:04;;;;;;;;;;;;;;;;;;5044643;28;19917;-77
2022/01/22 00:25:29;;;;;;;;;;;;;;;;;;5049331;28;20241;-79
2022/01/22 00:27:54;;;;;;;;;;;;;;;;;;5065054;28;20349;-76
2022/01/22 00:30:21;;;;;;;;;;;;;;;;;;5064569;28;19916;-76
2022/01/22 00:32:50;;;;;;;;;;;;;;;;;;5060044;28;20341;-75
2022/01/22 00:35:16;;;;;;;;;;;;;;;;;;5056266;28;19999;-75
2022/01/22 00:37:42;;;;;;;;;;;;;;;;;;5068772;28;20295;-76
2022/01/22 00:40:10;;;;;;;;;;;;;;;;;;5062272;28;20330;-75
2022/01/22 00:42:36;;;;;;;;;;;;;;;;;;5059832;28;19925;-76
2022/01/22 00:45:02;;;;;;;;;;;;;;;;;;5068955;28;20003;-76
2022/01/22 00:47:27;;;;;;;;;;;;;;;;;;5063222;28;20058;-76
2022/01/22 00:49:52;;;;;;;;;;;;;;;;;;5057921;28;19916;-76
2022/01/22 00:52:18;;;;;;;;;;;;;;;;;;5062865;28;19948;-76
2022/01/22 00:54:43;;;;;;;;;;;;;;;;;;5066337;28;19921;-75
2022/01/22 00:57:08;;;;;;;;;;;;;;;;;;5058093;28;19925;-75
2022/01/22 00:59:35;;;;;;;;;;;;;;;;;;5061334;28;20004;-75
2022/01/22 01:02:01;;;;;;;;;;;;;;;;;;5064873;28;20012;-75
2022/01/22 01:04:28;;;;;;;;;;;;;;;;;;5060128;28;20003;-75
2022/01/22 01:06:56;;;;;;;;;;;;;;;;;;5059424;28;19935;-75
2022/01/22 01:09:21;;;;;;;;;;;;;;;;;;5059502;28;19916;-76
2022/01/22 01:11:52;;;;;;;;;;;;;;;;;;5068355;28;21085;-76
2022/01/22 01:14:24;;;;;;;;;;;;;;;;;;5063376;28;19925;-75
2022/01/22 01:35:29;;;;;;;;;;;;;;;;;;5057124;28;19912;-76
2022/01/22 01:37:57;;;;;;;;;;;;;;;;;;5062079;28;19917;-79
2022/01/22 01:40:24;;;;;;;;;;;;;;;;;;5065130;28;19924;-79
2022/01/22 01:43:06;;;;;;;;;;;;;;;;;;5061079;28;19924;-77
2022/01/22 01:45:34;;;;;;;;;;;;;;;;;;5054975;28;19960;-78
2022/01/22 01:48:03;;;;;;;;;;;;;;;;;;5060142;28;19921;-78
2022/01/22 01:50:33;;;;;;;;;;;;;;;;;;5049463;28;19923;-76
2022/01/22 01:58:23;;;;;;;;;;;;;;;;;;5050029;28;19932;-76
2022/01/22 02:00:48;;;;;;;;;;;;;;;;;;5060745;28;19917;-75
2022/01/22 02:03:14;;;;;;;;;;;;;;;;;;5057229;28;19960;-75
2022/01/22 02:05:39;;;;;;;;;;;;;;;;;;5058480;28;19978;-74
2022/01/22 02:08:05;;;;;;;;;;;;;;;;;;5055660;28;19979;-75
2022/01/22 02:10:34;;;;;;;;;;;;;;;;;;5061903;28;20345;-75
2022/01/22 02:23:56;;;;;;;;;;;;;;;;;;5054586;28;19927;-74
2022/01/22 02:26:22;;;;;;;;;;;;;;;;;;5054460;28;19928;-73
2022/01/22 02:28:49;;;;;;;;;;;;;;;;;;5055243;28;19916;-73
2022/01/22 02:31:26;;;;;;;;;;;;;;;;;;5047193;28;19954;-72
2022/01/22 02:41:29;;;;;;;;;;;;;;;;;;5054435;28;19952;-72
2022/01/22 02:43:56;;;;;;;;;;;;;;;;;;5054867;28;20346;-72
2022/01/22 02:46:23;;;;;;;;;;;;;;;;;;5054577;28;19927;-72
2022/01/22 02:48:51;;;;;;;;;;;;;;;;;;5054574;28;19916;-72
2022/01/22 02:51:16;;;;;;;;;;;;;;;;;;5053571;28;19916;-73
2022/01/22 02:53:44;;;;;;;;;;;;;;;;;;5055063;28;19928;-72
2022/01/22 02:56:10;;;;;;;;;;;;;;;;;;5054486;28;19974;-72
2022/01/22 02:58:36;;;;;;;;;;;;;;;;;;5054755;28;20304;-73
2022/01/22 03:01:01;;;;;;;;;;;;;;;;;;5066003;28;20269;-72
2022/01/22 03:03:26;;;;;;;;;;;;;;;;;;5048972;28;19923;-73
2022/01/22 03:05:54;;;;;;;;;;;;;;;;;;5053543;28;19916;-72
2022/01/22 03:08:21;;;;;;;;;;;;;;;;;;5054655;28;19952;-73
2022/01/22 03:10:50;;;;;;;;;;;;;;;;;;5055684;28;19959;-73
2022/01/22 03:15:58;;;;;;;;;;;;;;;;;;5067653;28;20242;-72
2022/01/22 03:29:19;;;;;;;;;;;;;;;;;;5053990;28;19927;-76
2022/01/22 03:31:44;;;;;;;;;;;;;;;;;;5054540;28;20281;-75
2022/01/22 03:34:09;;;;;;;;;;;;;;;;;;5054082;28;19935;-75
2022/01/22 03:36:35;;;;;;;;;;;;;;;;;;5054137;28;19928;-75
2022/01/22 03:39:01;;;;;;;;;;;;;;;;;;5053351;28;19928;-75
2022/01/22 03:41:26;;;;;;;;;;;;;;;;;;5050071;28;20023;-74
2022/01/22 03:43:52;;;;;;;;;;;;;;;;;;5052982;28;20008;-75
2022/01/22 03:46:17;;;;;;;;;;;;;;;;;;5054071;28;20303;-75
2022/01/22 03:48:42;;;;;;;;;;;;;;;;;;5053998;28;20019;-76
2022/01/22 03:51:07;;;;;;;;;;;;;;;;;;5054024;28;20338;-75
2022/01/22 03:53:33;;;;;;;;;;;;;;;;;;5053646;28;19928;-76
2022/01/22 03:56:05;;;;;;;;;;;;;;;;;;5053718;28;19916;-74
2022/01/22 03:58:31;;;;;;;;;;;;;;;;;;5054052;28;19928;-74
2022/01/22 04:01:44;;;;;;;;;;;;;;;;;;5052985;28;19925;-75
2022/01/22 04:03:46;;;;;;;;;;;;;;;;;;5056290;28;19978;-75
2022/01/22 04:08:37;;;;;;;;;;;;;;;;;;5057741;28;19923;-75
2022/01/22 04:11:03;;;;;;;;;;;;;;;;;;5056380;28;19917;-76
2022/01/22 04:13:35;;;;;;;;;;;;;;;;;;5057431;28;19928;-76
2022/01/22 04:16:02;;;;;;;;;;;;;;;;;;5056774;28;19916;-76
2022/01/22 04:29:07;;;;;;;;;;;;;;;;;;5057060;28;19916;-76
2022/01/22 04:31:34;;;;;;;;;;;;;;;;;;5057391;28;19924;-76
2022/01/22 04:33:59;;;;;;;;;;;;;;;;;;5056978;28;19924;-76
2022/01/22 04:36:25;;;;;;;;;;;;;;;;;;5057145;28;19913;-76
2022/01/22 04:38:52;;;;;;;;;;;;;;;;;;5055869;28;19927;-75
2022/01/22 04:41:18;;;;;;;;;;;;;;;;;;5087717;28;19916;-75
2022/01/22 04:43:44;;;;;;;;;;;;;;;;;;5056058;28;20425;-76
2022/01/22 04:46:34;;;;;;;;;;;;;;;;;;5057244;28;19928;-75
2022/01/22 04:49:12;;;;;;;;;;;;;;;;;;5054578;28;19917;-75
2022/01/22 04:57:06;;;;;;;;;;;;;;;;;;5056458;28;19991;-76
2022/01/22 04:59:31;;;;;;;;;;;;;;;;;;5072607;28;19925;-76
2022/01/22 05:01:56;;;;;;;;;;;;;;;;;;5053949;28;19924;-76
2022/01/22 05:04:22;;;;;;;;;;;;;;;;;;5057704;28;19923;-76
2022/01/22 05:06:47;;;;;;;;;;;;;;;;;;5055137;28;20004;-76
2022/01/22 05:09:12;;;;;;;;;;;;;;;;;;5050730;28;20392;-76
2022/01/22 05:11:37;;;;;;;;;;;;;;;;;;5039990;28;19959;-76
2022/01/22 05:14:03;;;;;;;;;;;;;;;;;;5054849;28;19920;-74
2022/01/22 05:16:33;;;;;;;;;;;;;;;;;;5056770;28;20322;-75
2022/01/22 05:19:07;;;;;;;;;;;;;;;;;;5056013;28;19956;-76
2022/01/22 05:21:35;;;;;;;;;;;;;;;;;;5057145;28;19939;-75
2022/01/22 05:24:07;;;;;;;;;;;;;;;;;;5052818;28;20428;-75
2022/01/22 05:31:40;;;;;;;;;;;;;;;;;;5057663;28;19932;-75
2022/01/22 05:37:11;;;;;;;;;;;;;;;;;;5032961;28;19913;-75
2022/01/22 05:39:37;;;;;;;;;;;;;;;;;;5043107;28;19917;-76
2022/01/22 05:42:03;;;;;;;;;;;;;;;;;;5036217;28;20011;-76
2022/01/22 05:44:31;;;;;;;;;;;;;;;;;;5033273;28;20356;-76
2022/01/22 05:46:58;;;;;;;;;;;;;;;;;;5036069;28;19913;-76
2022/01/22 05:49:26;;;;;;;;;;;;;;;;;;5052959;28;19917;-76
2022/01/22 05:51:54;;;;;;;;;;;;;;;;;;5054729;28;20330;-76
2022/01/22 05:59:38;;;;;;;;;;;;;;;;;;5055535;28;19928;-75
2022/01/22 06:02:04;;;;;;;;;;;;;;;;;;5055278;28;20002;-76
2022/01/22 06:04:29;;;;;;;;;;;;;;;;;;5055715;28;19927;-76
2022/01/22 06:06:55;;;;;;;;;;;;;;;;;;5055161;28;19917;-75
2022/01/22 06:09:20;;;;;;;;;;;;;;;;;;5054797;28;19920;-74
2022/01/22 06:11:55;;;;;;;;;;;;;;;;;;5054946;28;19928;-75
2022/01/22 06:14:20;;;;;;;;;;;;;;;;;;5055462;28;19921;-75
2022/01/22 06:16:45;;;;;;;;;;;;;;;;;;5054290;28;19927;-74
2022/01/22 06:19:13;;;;;;;;;;;;;;;;;;5055400;28;19963;-75
2022/01/22 06:21:38;;;;;;;;;;;;;;;;;;5055390;28;19923;-74
2022/01/22 06:24:04;;;;;;;;;;;;;;;;;;5054656;28;19917;-74
2022/01/22 06:26:29;;;;;;;;;;;;;;;;;;5054493;28;20004;-74
2022/01/22 06:28:54;;;;;;;;;;;;;;;;;;5054733;28;19927;-74
2022/01/22 06:31:19;;;;;;;;;;;;;;;;;;5055070;28;19920;-74
2022/01/22 06:33:44;;;;;;;;;;;;;;;;;;5054785;28;19953;-74
2022/01/22 06:36:10;;;;;;;;;;;;;;;;;;5055230;28;19927;-74
2022/01/22 06:38:35;;;;;;;;;;;;;;;;;;5050039;28;20016;-74
2022/01/22 06:43:46;;;;;;;;;;;;;;;;;;5052250;28;19928;-74
2022/01/22 06:46:14;;;;;;;;;;;;;;;;;;5038116;28;19917;-74
2022/01/22 06:48:39;;;;;;;;;;;;;;;;;;5047637;28;19924;-74
2022/01/22 06:51:07;;;;;;;;;;;;;;;;;;5080181;28;19917;-74
2022/01/22 06:53:40;;;;;;;;;;;;;;;;;;5042564;28;19921;-74
2022/01/22 06:56:06;;;;;;;;;;;;;;;;;;5063375;28;19916;-73
2022/01/22 06:58:31;;;;;;;;;;;;;;;;;;5053556;28;19940;-74
2022/01/22 07:00:56;;;;;;;;;;;;;;;;;;5054151;28;19988;-74
2022/01/22 07:03:22;;;;;;;;;;;;;;;;;;5070401;28;19923;-74
2022/01/22 07:05:47;;;;;;;;;;;;;;;;;;5054124;28;19916;-75
2022/01/22 07:08:14;;;;;;;;;;;;;;;;;;5053067;28;20015;-74
2022/01/22 07:10:40;;;;;;;;;;;;;;;;;;5053246;28;19940;-74
2022/01/22 07:13:07;;;;;;;;;;;;;;;;;;5054248;28;19959;-74
2022/01/22 07:15:33;;;;;;;;;;;;;;;;;;5034581;28;20266;-74
2022/01/22 07:17:58;;;;;;;;;;;;;;;;;;5049396;28;19943;-73
2022/01/22 07:20:29;;;;;;;;;;;;;;;;;;5053762;28;20362;-74
2022/01/22 07:23:02;;;;;;;;;;;;;;;;;;5043076;28;19932;-74
2022/01/22 07:25:27;;;;;;;;;;;;;;;;;;5045168;28;20546;-74
2022/01/22 07:27:54;;;;;;;;;;;;;;;;;;5054071;28;19925;-74
2022/01/22 07:30:20;;;;;;;;;;;;;;;;;;5055884;28;19928;-74
2022/01/22 07:32:45;;;;;;;;;;;;;;;;;;5053690;28;20246;-75
2022/01/22 07:35:11;;;;;;;;;;;;;;;;;;5053757;28;19917;-73
2022/01/22 07:37:36;;;;;;;;;;;;;;;;;;5054184;28;19917;-74
2022/01/22 07:40:05;;;;;;;;;;;;;;;;;;5057560;28;20453;-74
2022/01/22 07:42:30;;;;;;;;;;;;;;;;;;5073651;28;19917;-74
2022/01/22 07:44:58;;;;;;;;;;;;;;;;;;5050160;28;19917;-74
2022/01/22 07:47:23;;;;;;;;;;;;;;;;;;5058618;28;19912;-74
2022/01/22 07:49:48;;;;;;;;;;;;;;;;;;5057978;28;19917;-74
2022/01/22 07:52:16;;;;;;;;;;;;;;;;;;5057018;28;20346;-74
2022/01/22 07:54:41;;;;;;;;;;;;;;;;;;5057504;28;19916;-74
2022/01/22 07:57:06;;;;;;;;;;;;;;;;;;5057349;28;19970;-74
2022/01/22 07:59:33;;;;;;;;;;;;;;;;;;5057545;28;19917;-74
2022/01/22 08:02:01;;;;;;;;;;;;;;;;;;5057628;28;19932;-74
2022/01/22 08:04:26;;;;;;;;;;;;;;;;;;5055927;28;19916;-74
2022/01/22 08:06:56;;;;;;;;;;;;;;;;;;5057206;28;20000;-74
2022/01/22 08:09:21;;;;;;;;;;;;;;;;;;5056421;28;20346;-74
2022/01/22 08:11:49;;;;;;;;;;;;;;;;;;5051682;28;19916;-74
2022/01/22 08:14:14;;;;;;;;;;;;;;;;;;5056279;28;19928;-73
2022/01/22 08:16:42;;;;;;;;;;;;;;;;;;5056482;28;19920;-73
2022/01/22 08:19:07;;;;;;;;;;;;;;;;;;5056391;28;19923;-74
2022/01/22 08:21:32;;;;;;;;;;;;;;;;;;5057228;28;19917;-75
2022/01/22 08:23:57;;;;;;;;;;;;;;;;;;5054226;28;19917;-74
2022/01/22 08:26:27;;;;;;;;;;;;;;;;;;5050372;28;19947;-74
2022/01/22 08:28:53;;;;;;;;;;;;;;;;;;5056861;28;19927;-74
2022/01/22 08:31:25;;;;;;;;;;;;;;;;;;5057161;28;20254;-73
2022/01/22 08:36:34;;;;;;;;;;;;;;;;;;5056836;28;19947;-73
2022/01/22 08:38:59;;;;;;;;;;;;;;;;;;5056499;28;19920;-73
2022/01/22 08:41:27;;;;;;;;;;;;;;;;;;5055735;28;19936;-73
2022/01/22 08:43:54;;;;;;;;;;;;;;;;;;5056756;28;20308;-73
2022/01/22 08:46:20;;;;;;;;;;;;;;;;;;5056014;28;19916;-74
2022/01/22 08:48:46;;;;;;;;;;;;;;;;;;5052154;28;19927;-73
2022/01/22 08:51:12;;;;;;;;;;;;;;;;;;5056525;28;19927;-73
2022/01/22 08:53:37;;;;;;;;;;;;;;;;;;5056789;28;20416;-73
2022/01/22 08:56:05;;;;;;;;;;;;;;;;;;5056647;28;19928;-74
2022/01/22 08:58:30;;;;;;;;;;;;;;;;;;5056515;28;19956;-74
2022/01/22 09:00:55;;;;;;;;;;;;;;;;;;5055656;28;19948;-74
2022/01/22 09:03:21;;;;;;;;;;;;;;;;;;5085888;28;19921;-73
2022/01/22 09:05:47;;;;;;;;;;;;;;;;;;5056799;28;19920;-74
2022/01/22 09:08:15;;;;;;;;;;;;;;;;;;5056258;28;19951;-74
2022/01/22 09:10:42;;;;;;;;;;;;;;;;;;5056320;28;19932;-74
2022/01/22 09:13:10;;;;;;;;;;;;;;;;;;5055083;28;19921;-73
2022/01/22 09:15:38;;;;;;;;;;;;;;;;;;5053337;28;19917;-73
2022/01/22 09:18:04;;;;;;;;;;;;;;;;;;5060240;28;20405;-72
2022/01/22 09:23:04;;;;;;;;;;;;;;;;;;5054684;28;19927;-74
2022/01/22 09:25:31;;;;;;;;;;;;;;;;;;5055804;28;20241;-74
2022/01/22 09:27:58;;;;;;;;;;;;;;;;;;5051122;28;19920;-74
2022/01/22 09:30:23;;;;;;;;;;;;;;;;;;5049506;28;19917;-75
2022/01/22 09:32:49;;;;;;;;;;;;;;;;;;5053934;28;19948;-75
2022/01/22 09:35:14;;;;;;;;;;;;;;;;;;5051664;28;20558;-76
2022/01/22 09:37:39;;;;;;;;;;;;;;;;;;5064987;28;19921;-75
2022/01/22 09:40:05;;;;;;;;;;;;;;;;;;5054483;28;19917;-77
2022/01/22 09:42:30;;;;;;;;;;;;;;;;;;5053116;28;19998;-75
2022/01/22 09:44:55;;;;;;;;;;;;;;;;;;5054577;28;19960;-75
2022/01/22 09:47:21;;;;;;;;;;;;;;;;;;5055508;28;20003;-74
2022/01/22 09:49:49;;;;;;;;;;;;;;;;;;5055433;28;20320;-74
2022/01/22 09:52:22;;;;;;;;;;;;;;;;;;5053335;28;19962;-75
2022/01/22 09:54:50;;;;;;;;;;;;;;;;;;5049607;28;19921;-76
2022/01/22 09:57:17;;;;;;;;;;;;;;;;;;5053601;28;19916;-76
2022/01/22 09:59:45;;;;;;;;;;;;;;;;;;5055575;28;19928;-73
2022/01/22 10:02:12;;;;;;;;;;;;;;;;;;5062863;28;19920;-74
2022/01/22 10:04:40;;;;;;;;;;;;;;;;;;5054160;28;19964;-76
2022/01/22 10:07:05;;;;;;;;;;;;;;;;;;5077330;28;19917;-77
2022/01/22 10:09:46;;;;;;;;;;;;;;;;;;5055907;28;19924;-78
2022/01/22 10:12:14;;;;;;;;;;;;;;;;;;5054637;28;19928;-74
2022/01/22 10:14:58;;;;;;;;;;;;;;;;;;5056306;28;20601;-76
2022/01/22 10:17:44;;;;;;;;;;;;;;;;;;5061136;28;19924;-76
2022/01/22 10:20:24;;;;;;;;;;;;;;;;;;5053088;28;19917;-75
2022/01/22 10:22:53;;;;;;;;;;;;;;;;;;5060511;28;19930;-75
2022/01/22 10:25:23;;;;;;;;;;;;;;;;;;5046022;28;19936;-76
2022/01/22 10:27:55;;;;;;;;;;;;;;;;;;5050692;28;19930;-76
2022/01/22 10:30:20;;;;;;;;;;;;;;;;;;5047486;28;19920;-76
2022/01/22 10:33:06;;;;;;;;;;;;;;;;;;5072420;28;20046;-75
2022/01/22 10:35:31;;;;;;;;;;;;;;;;;;5054052;28;19925;-76
2022/01/22 10:37:57;;;;;;;;;;;;;;;;;;5048876;28;19983;-75
2022/01/22 10:40:27;;;;;;;;;;;;;;;;;;5046279;28;19921;-75
2022/01/22 10:43:11;;;;;;;;;;;;;;;;;;5051430;28;20373;-74
2022/01/22 10:45:41;;;;;;;;;;;;;;;;;;5053913;28;19916;-76
2022/01/22 10:48:13;;;;;;;;;;;;;;;;;;5060374;28;19932;-74
2022/01/22 10:50:41;;;;;;;;;;;;;;;;;;5054948;28;19973;-76
2022/01/22 10:53:06;;;;;;;;;;;;;;;;;;5058396;28;20397;-75
2022/01/22 10:55:51;;;;;;;;;;;;;;;;;;5058828;28;20007;-73
2022/01/22 10:58:16;;;;;;;;;;;;;;;;;;5054309;28;20365;-76
2022/01/22 11:00:47;;;;;;;;;;;;;;;;;;5057065;28;19920;-74
2022/01/22 11:03:26;;;;;;;;;;;;;;;;;;5055668;28;20288;-74
2022/01/22 11:05:51;;;;;;;;;;;;;;;;;;5060229;28;19927;-74
2022/01/22 11:08:19;;;;;;;;;;;;;;;;;;5056103;28;20262;-75
2022/01/22 11:10:56;;;;;;;;;;;;;;;;;;5055138;28;19994;-74
2022/01/22 11:13:22;;;;;;;;;;;;;;;;;;5054659;28;19936;-75
2022/01/22 11:15:49;;;;;;;;;;;;;;;;;;5047184;28;19924;-76
2022/01/22 11:18:16;;;;;;;;;;;;;;;;;;5049769;28;19927;-75
2022/01/22 11:20:41;;;;;;;;;;;;;;;;;;5049864;28;19996;-73
2022/01/22 11:23:07;;;;;;;;;;;;;;;;;;5054041;28;19917;-76
2022/01/22 11:25:38;;;;;;;;;;;;;;;;;;5054641;28;19924;-78
2022/01/22 11:28:03;;;;;;;;;;;;;;;;;;5054786;28;19940;-74
2022/01/22 11:30:29;;;;;;;;;;;;;;;;;;5052732;28;19916;-73
2022/01/22 11:32:57;;;;;;;;;;;;;;;;;;5059291;28;19924;-74
2022/01/22 11:35:38;;;;;;;;;;;;;;;;;;5058592;28;20406;-74
2022/01/22 11:38:15;;;;;;;;;;;;;;;;;;5056729;28;20333;-74
2022/01/22 11:40:41;;;;;;;;;;;;;;;;;;5059050;28;19926;-73
2022/01/22 11:43:09;;;;;;;;;;;;;;;;;;5055852;28;20021;-78
2022/01/22 11:45:39;;;;;;;;;;;;;;;;;;5054099;28;20382;-75
2022/01/22 11:48:10;;;;;;;;;;;;;;;;;;5057065;28;19916;-75
2022/01/22 11:50:36;;;;;;;;;;;;;;;;;;5071068;28;20375;-76
2022/01/22 11:53:20;;;;;;;;;;;;;;;;;;5056525;28;19967;-75
2022/01/22 11:56:04;;;;;;;;;;;;;;;;;;5053581;28;20085;-74
2022/01/22 11:58:31;;;;;;;;;;;;;;;;;;5052111;28;19979;-75
2022/01/22 12:00:57;;;;;;;;;;;;;;;;;;5058289;28;19921;-75
2022/01/22 12:03:22;;;;;;;;;;;;;;;;;;5059212;28;20039;-74
2022/01/22 12:05:53;;;;;;;;;;;;;;;;;;5056672;28;20000;-74
2022/01/22 12:08:19;;;;;;;;;;;;;;;;;;5054951;28;19959;-76
2022/01/22 12:16:13;;;;;;;;;;;;;;;;;;5054342;28;20364;-74
2022/01/22 12:18:43;;;;;;;;;;;;;;;;;;5052630;28;20070;-75
2022/01/22 12:24:12;;;;;;;;;;;;;;;;;;5057979;28;20321;-75
2022/01/22 12:26:46;;;;;;;;;;;;;;;;;;5063010;28;19917;-75
2022/01/22 12:32:16;;;;;;;;;;;;;;;;;;5061379;28;19923;-76
2022/01/22 12:34:54;;;;;;;;;;;;;;;;;;5085746;28;19921;-76
2022/01/22 12:37:20;;;;;;;;;;;;;;;;;;5059426;28;19921;-75
2022/01/22 12:39:50;;;;;;;;;;;;;;;;;;5055248;28;19992;-72
2022/01/22 12:42:25;;;;;;;;;;;;;;;;;;5052376;28;20408;-75
2022/01/22 12:44:56;;;;;;;;;;;;;;;;;;5051204;28;19979;-75
2022/01/22 12:47:22;;;;;;;;;;;;;;;;;;5077571;28;19917;-74
2022/01/22 12:49:57;;;;;;;;;;;;;;;;;;5053857;28;19917;-75
2022/01/22 12:52:24;;;;;;;;;;;;;;;;;;5053938;28;19916;-76
2022/01/22 12:54:56;;;;;;;;;;;;;;;;;;5054183;28;19912;-74
2022/01/22 12:57:30;;;;;;;;;;;;;;;;;;5049690;28;19971;-74
2022/01/22 13:00:20;;;;;;;;;;;;;;;;;;5055462;28;19921;-78
2022/01/22 13:02:55;;;;;;;;;;;;;;;;;;5054410;28;19967;-75
2022/01/22 13:05:21;;;;;;;;;;;;;;;;;;5055389;28;19917;-74
2022/01/22 13:07:54;;;;;;;;;;;;;;;;;;5062025;28;20281;-75
2022/01/22 13:10:26;;;;;;;;;;;;;;;;;;5071711;28;20400;-75
2022/01/22 13:12:53;;;;;;;;;;;;;;;;;;5066797;28;20245;-74
2022/01/22 13:15:18;;;;;;;;;;;;;;;;;;5055423;28;19916;-74
2022/01/22 13:17:56;;;;;;;;;;;;;;;;;;5056424;28;19939;-74
2022/01/22 13:20:22;;;;;;;;;;;;;;;;;;5062986;28;20003;-78
2022/01/22 13:23:02;;;;;;;;;;;;;;;;;;5062524;28;19928;-79
2022/01/22 13:25:33;;;;;;;;;;;;;;;;;;5058503;28;20012;-78
2022/01/22 13:28:03;;;;;;;;;;;;;;;;;;5056845;28;20319;-79
2022/01/22 13:30:32;;;;;;;;;;;;;;;;;;5002230;28;1807479;-78
2022/01/22 13:33:06;;;;;;;;;;;;;;;;;;5057929;28;20010;-78
2022/01/22 13:49:34;;;;;;;;;;;;;;;;;;4992692;28;20317;-80
2022/01/22 13:52:04;;;;;;;;;;;;;;;;;;5019165;28;19971;-78
2022/01/22 13:54:36;;;;;;;;;;;;;;;;;;5053224;28;19931;-78
2022/01/22 13:57:37;;;;;;;;;;;;;;;;;;5052934;28;19916;-79
2022/01/22 14:00:13;;;;;;;;;;;;;;;;;;5014519;28;19917;-78
2022/01/22 14:05:27;;;;;;;;;;;;;;;;;;5052714;28;19967;-79
2022/01/22 14:07:58;;;;;;;;;;;;;;;;;;5053410;28;19913;-78
2022/01/22 14:10:25;;;;;;;;;;;;;;;;;;5053169;28;19924;-82
2022/01/22 14:13:04;;;;;;;;;;;;;;;;;;5030565;28;19979;-80
2022/01/22 14:15:39;;;;;;;;;;;;;;;;;;5015392;28;19927;-81
2022/01/22 14:23:23;;;;;;;;;;;;;;;;;;5042114;28;19920;-79
2022/01/22 14:26:01;;;;;;;;;;;;;;;;;;5042489;28;20821;-79
2022/01/22 14:28:36;;;;;;;;;;;;;;;;;;5044487;28;20413;-79
2022/01/22 14:31:01;;;;;;;;;;;;;;;;;;5045609;28;19929;-83
2022/01/22 14:33:40;;;;;;;;;;;;;;;;;;5046628;28;19921;-80
2022/01/22 14:36:08;;;;;;;;;;;;;;;;;;5044163;28;19916;-81
2022/01/22 14:46:43;;;;;;;;;;;;;;;;;;5055900;28;19920;-78
2022/01/22 14:49:09;;;;;;;;;;;;;;;;;;5057083;28;20039;-78
2022/01/22 14:51:34;;;;;;;;;;;;;;;;;;5052821;28;20377;-79
2022/01/22 14:54:01;;;;;;;;;;;;;;;;;;5056713;28;19931;-78
2022/01/22 14:56:28;;;;;;;;;;;;;;;;;;5052188;28;19920;-78
2022/01/22 14:58:53;;;;;;;;;;;;;;;;;;5052013;28;20264;-78
2022/01/22 15:01:21;;;;;;;;;;;;;;;;;;5053222;28;19916;-80
2022/01/22 15:04:11;;;;;;;;;;;;;;;;;;5050816;28;20373;-81
2022/01/22 15:06:36;;;;;;;;;;;;;;;;;;5051165;28;20452;-81
2022/01/22 15:09:02;;;;;;;;;;;;;;;;;;5056537;28;19921;-80
2022/01/22 15:11:27;;;;;;;;;;;;;;;;;;5050919;28;19916;-78
2022/01/22 15:13:52;;;;;;;;;;;;;;;;;;5055495;28;19917;-79
2022/01/22 15:16:19;;;;;;;;;;;;;;;;;;5058020;28;20786;-78
2022/01/22 15:21:12;;;;;;;;;;;;;;;;;;5057071;28;19921;-79
2022/01/22 15:23:38;;;;;;;;;;;;;;;;;;5072732;28;19917;-80
2022/01/22 15:26:03;;;;;;;;;;;;;;;;;;5055979;28;19917;-80
2022/01/22 15:28:33;;;;;;;;;;;;;;;;;;5058947;28;19916;-78
2022/01/22 15:30:58;;;;;;;;;;;;;;;;;;5058821;28;19929;-81
2022/01/22 15:36:14;;;;;;;;;;;;;;;;;;5055915;28;19971;-79
2022/01/22 15:38:39;;;;;;;;;;;;;;;;;;5059388;28;19917;-81
2022/01/22 15:41:07;;;;;;;;;;;;;;;;;;5055456;28;19917;-81
2022/01/22 15:43:34;;;;;;;;;;;;;;;;;;5054667;28;19951;-79
2022/01/22 15:45:59;;;;;;;;;;;;;;;;;;5054320;28;20468;-80
2022/01/22 15:48:35;;;;;;;;;;;;;;;;;;5052296;28;19952;-77
2022/01/22 15:51:00;;;;;;;;;;;;;;;;;;5071642;28;19978;-78
2022/01/22 15:53:49;;;;;;;;;;;;;;;;;;5054550;28;19928;-80
2022/01/22 15:56:26;;;;;;;;;;;;;;;;;;5046488;28;19927;-79
2022/01/22 15:58:54;;;;;;;;;;;;;;;;;;5065351;28;20007;-79
2022/01/22 16:01:19;;;;;;;;;;;;;;;;;;5059252;28;19935;-79
2022/01/22 16:03:46;;;;;;;;;;;;;;;;;;5055633;28;19925;-80
2022/01/22 16:06:19;;;;;;;;;;;;;;;;;;5060869;28;19920;-79
2022/01/22 16:08:47;;;;;;;;;;;;;;;;;;5060454;28;20245;-79
2022/01/22 16:11:12;;;;;;;;;;;;;;;;;;5065990;28;20567;-77
2022/01/22 16:13:38;;;;;;;;;;;;;;;;;;5060180;28;19921;-79
2022/01/22 16:16:03;;;;;;;;;;;;;;;;;;5060298;28;19916;-78
2022/01/22 16:18:37;;;;;;;;;;;;;;;;;;5054567;28;19999;-80
2022/01/22 16:21:03;;;;;;;;;;;;;;;;;;5055690;28;19927;-78
2022/01/22 16:23:28;;;;;;;;;;;;;;;;;;5056951;28;20000;-79
2022/01/22 16:25:56;;;;;;;;;;;;;;;;;;5037784;28;20250;-78
2022/01/22 16:28:24;;;;;;;;;;;;;;;;;;5055073;28;19917;-80
2022/01/22 16:30:50;;;;;;;;;;;;;;;;;;5054718;28;19935;-78
2022/01/22 16:33:15;;;;;;;;;;;;;;;;;;5053803;28;20589;-78
2022/01/22 16:35:41;;;;;;;;;;;;;;;;;;5067534;28;19921;-77
2022/01/22 16:38:17;;;;;;;;;;;;;;;;;;5056420;28;20348;-78
2022/01/22 16:40:42;;;;;;;;;;;;;;;;;;5055023;28;19916;-77
2022/01/22 16:43:09;;;;;;;;;;;;;;;;;;5070948;28;19971;-76
2022/01/22 16:46:08;;;;;;;;;;;;;;;;;;5054850;28;19921;-77
2022/01/22 16:51:20;;;;;;;;;;;;;;;;;;5055890;28;20316;-78
2022/01/22 16:56:42;;;;;;;;;;;;;;;;;;5051766;28;19978;-78
2022/01/22 16:59:15;;;;;;;;;;;;;;;;;;5051473;28;19951;-78
2022/01/22 17:01:46;;;;;;;;;;;;;;;;;;5055104;28;19917;-77
2022/01/22 17:04:26;;;;;;;;;;;;;;;;;;5035987;28;19921;-78
2022/01/22 17:06:52;;;;;;;;;;;;;;;;;;5055170;28;19925;-78
2022/01/22 17:14:48;;;;;;;;;;;;;;;;;;5055101;28;20070;-78
2022/01/22 17:17:13;;;;;;;;;;;;;;;;;;5036803;28;20370;-78
2022/01/22 17:19:40;;;;;;;;;;;;;;;;;;5052979;28;20018;-78
2022/01/22 17:22:14;;;;;;;;;;;;;;;;;;5055205;28;20380;-78
2022/01/22 17:24:42;;;;;;;;;;;;;;;;;;5054689;28;20000;-78
2022/01/22 17:27:10;;;;;;;;;;;;;;;;;;5054692;28;20007;-77
2022/01/22 17:29:37;;;;;;;;;;;;;;;;;;5050588;28;20306;-78
2022/01/22 17:32:03;;;;;;;;;;;;;;;;;;5069520;28;20265;-79
2022/01/22 17:34:29;;;;;;;;;;;;;;;;;;5053370;28;19939;-78
2022/01/22 17:36:54;;;;;;;;;;;;;;;;;;5055070;28;19921;-78
2022/01/22 17:39:21;;;;;;;;;;;;;;;;;;5055298;28;19955;-79
2022/01/22 17:41:50;;;;;;;;;;;;;;;;;;5055220;28;20445;-78
2022/01/22 17:44:35;;;;;;;;;;;;;;;;;;5053446;28;19917;-77
2022/01/22 17:47:02;;;;;;;;;;;;;;;;;;5054807;28;20016;-77
2022/01/22 17:49:29;;;;;;;;;;;;;;;;;;5053445;28;19928;-78
2022/01/22 17:51:57;;;;;;;;;;;;;;;;;;5053498;28;19935;-79
2022/01/22 17:54:22;;;;;;;;;;;;;;;;;;5052444;28;20361;-78
2022/01/22 17:56:47;;;;;;;;;;;;;;;;;;5050938;28;19959;-78
2022/01/22 17:59:12;;;;;;;;;;;;;;;;;;5049699;28;19924;-78
2022/01/22 18:01:38;;;;;;;;;;;;;;;;;;5052168;28;19925;-78
2022/01/22 18:04:03;;;;;;;;;;;;;;;;;;5053286;28;20312;-78
2022/01/22 18:06:31;;;;;;;;;;;;;;;;;;5052403;28;19982;-78
2022/01/22 18:08:58;;;;;;;;;;;;;;;;;;5053837;28;19917;-78
2022/01/22 18:11:26;;;;;;;;;;;;;;;;;;5052132;28;19916;-78
2022/01/22 18:13:52;;;;;;;;;;;;;;;;;;5053037;28;19947;-78
2022/01/22 18:16:17;;;;;;;;;;;;;;;;;;5053085;28;20334;-78
2022/01/22 18:18:42;;;;;;;;;;;;;;;;;;5054018;28;19917;-78
2022/01/22 18:21:10;;;;;;;;;;;;;;;;;;5053337;28;19917;-79
2022/01/22 18:23:35;;;;;;;;;;;;;;;;;;5054613;28;20357;-79
2022/01/22 18:26:01;;;;;;;;;;;;;;;;;;5049198;28;19932;-81
2022/01/22 18:28:28;;;;;;;;;;;;;;;;;;5083869;28;19941;-80
2022/01/22 18:30:59;;;;;;;;;;;;;;;;;;5069789;28;21429;-80
2022/01/22 18:33:28;;;;;;;;;;;;;;;;;;5050312;28;20334;-81
2022/01/22 18:35:54;;;;;;;;;;;;;;;;;;5054065;28;19923;-80
2022/01/22 18:38:20;;;;;;;;;;;;;;;;;;5053730;28;20004;-81
2022/01/22 18:40:46;;;;;;;;;;;;;;;;;;5054490;28;19960;-79
2022/01/22 18:43:11;;;;;;;;;;;;;;;;;;5054376;28;19963;-79
2022/01/22 18:45:36;;;;;;;;;;;;;;;;;;5054564;28;19920;-79
2022/01/22 18:48:04;;;;;;;;;;;;;;;;;;5054499;28;19916;-79
2022/01/22 18:50:30;;;;;;;;;;;;;;;;;;5055601;28;19999;-81
2022/01/22 18:52:55;;;;;;;;;;;;;;;;;;5051087;28;20396;-80
2022/01/22 18:55:21;;;;;;;;;;;;;;;;;;5053701;28;19921;-80
2022/01/22 18:57:46;;;;;;;;;;;;;;;;;;5055973;28;19970;-78
2022/01/22 19:00:12;;;;;;;;;;;;;;;;;;5054330;28;19917;-81
2022/01/22 19:02:38;;;;;;;;;;;;;;;;;;5056206;28;20338;-81
2022/01/22 19:05:06;;;;;;;;;;;;;;;;;;5054749;28;19916;-79
2022/01/22 19:07:39;;;;;;;;;;;;;;;;;;5056870;28;19917;-81
2022/01/22 19:10:08;;;;;;;;;;;;;;;;;;5054880;28;20385;-81
2022/01/22 19:12:34;;;;;;;;;;;;;;;;;;5055537;28;19916;-83
2022/01/22 19:14:59;;;;;;;;;;;;;;;;;;5040327;28;19932;-83
2022/01/22 19:17:24;;;;;;;;;;;;;;;;;;5054948;28;19916;-81
2022/01/22 19:19:49;;;;;;;;;;;;;;;;;;5087744;28;19916;-81
2022/01/22 19:22:31;;;;;;;;;;;;;;;;;;5055185;28;20249;-81
2022/01/22 19:25:49;;;;;;;;;;;;;;;;;;5040611;28;20321;-82
2022/01/22 19:28:00;;;;;;;;;;;;;;;;;;5049429;28;19916;-81
2022/01/22 19:30:32;;;;;;;;;;;;;;;;;;5050179;28;19917;-82